CMA CGM Africa Two — C6YR9 — position and weather

sailwx.info

Track history (hours):
 
Tides and Currents Weather Stations Pressure Air Temp Water Temp Dewpoint Dewpoint Depression Visibility Wind Speed Wind Dir Waves Ship Positions

CMA CGM Africa Two

Last reported at 2018-Feb-20 07:30 UTC. Time now 2018-Feb-20 07:46 UTC.
Position N 51°28' E 000°20'.

Length 228 m; draft 8.5 m.

Type: Ship (hazmat cat A). MMSI: 311043300.

Date/timePositionNaut miles runAvg speedWind from/ knotsBaromVisibWave heightAir tempDewpointWater temp
2018-Feb-20 07:30N 51°28' E 000°20'0 0.0
2018-Feb-20 07:00N 51°28' E 000°20'0 0.0
2018-Feb-20 06:30N 51°28' E 000°20'0 0.0
2018-Feb-20 06:00N 51°28' E 000°20'0 0.0
2018-Feb-20 05:30N 51°28' E 000°20'0 0.0
2018-Feb-20 05:00N 51°28' E 000°20'0 0.0
2018-Feb-20 04:30N 51°28' E 000°20'0 0.0
2018-Feb-20 04:00N 51°28' E 000°20'0 0.0
2018-Feb-20 03:30N 51°28' E 000°20'0 0.0
2018-Feb-20 03:01N 51°28' E 000°20'0 0.0
2018-Feb-20 02:30N 51°28' E 000°20'0 0.0
2018-Feb-20 02:00N 51°28' E 000°20'0 0.0
2018-Feb-20 01:31N 51°28' E 000°20'0 0.0
2018-Feb-20 01:01N 51°28' E 000°20'0 0.0
2018-Feb-20 00:30N 51°28' E 000°20'0 0.0
2018-Feb-20 00:00N 51°28' E 000°20'0 0.0
2018-Feb-19 23:30N 51°28' E 000°20'0 0.0
2018-Feb-19 23:00N 51°28' E 000°20'0 0.0
2018-Feb-19 22:30N 51°28' E 000°20'0 0.0
2018-Feb-19 22:01N 51°28' E 000°20'0 0.0
2018-Feb-19 21:30N 51°28' E 000°20'0 0.0
2018-Feb-19 21:01N 51°28' E 000°20'0 0.0
2018-Feb-19 20:31N 51°28' E 000°20'0 0.1
2018-Feb-19 20:00N 51°28' E 000°20'2 3.2
2018-Feb-19 19:31N 51°27' E 000°22'4 8.7
2018-Feb-19 19:01N 51°29' E 000°28'611.0
2018-Feb-19 18:30N 51°30' E 000°37'612.0
2018-Feb-19 18:00N 51°29' E 000°47'612.4
2018-Feb-19 17:30N 51°29' E 000°56'713.1
2018-Feb-19 17:00N 51°30' E 001°07'612.8
2018-Feb-19 16:31N 51°29' E 001°17'612.2
2018-Feb-19 16:01N 51°28' E 001°27'1 1.3
2018-Feb-19 15:31N 51°28' E 001°28'4 7.4
2018-Feb-19 15:00N 51°25' E 001°31'2 4.1
2018-Feb-19 14:30N 51°25' E 001°34'1 2.6
2018-Feb-19 14:00N 51°23' E 001°35'510.8
2018-Feb-19 13:30N 51°18' E 001°37'612.3
2018-Feb-19 13:01N 51°12' E 001°38'510.7
2018-Feb-19 12:30N 51°07' E 001°41'611.8
2018-Feb-19 12:00N 51°03' E 001°48'5 9.8
2018-Feb-19 11:30N 51°03' E 001°55'916.2
2018-Feb-19 10:59N 51°03' E 002°09'2 1.9
2018-Feb-19 09:42N 51°01' E 002°11'0 0.0
2018-Feb-19 08:31N 51°01' E 002°11'0 0.0
2018-Feb-19 07:45N 51°01' E 002°11'0 0.0
2018-Feb-19 07:27N 51°01' E 002°11'0 0.0
2018-Feb-19 06:54N 51°01' E 002°11'0 0.0
2018-Feb-19 06:30N 51°01' E 002°11'0 0.0
2018-Feb-19 05:31N 51°01' E 002°11'0 0.0
2018-Feb-19 05:16N 51°01' E 002°11'0 0.0
2018-Feb-19 04:50N 51°01' E 002°11'0 0.0
2018-Feb-19 04:25N 51°01' E 002°11'0 0.1
2018-Feb-19 04:00N 51°01' E 002°11'3 4.3
2018-Feb-19 03:16N 51°03' E 002°08'414.5
2018-Feb-19 03:00N 51°03' E 002°02'816.2
2018-Feb-19 02:30N 51°02' E 001°49'612.3
2018-Feb-19 02:00N 51°00' E 001°40'918.9
2018-Feb-19 01:30N 50°53' E 001°29'1717.1
2018-Feb-19 00:31N 50°38' E 001°17'315.1
2018-Feb-19 00:17N 50°36' E 001°13'915.3
2018-Feb-18 23:43N 50°31' E 001°02'415.0
2018-Feb-18 23:27N 50°29' E 000°56'715.2
2018-Feb-18 22:59N 50°27' E 000°46'815.5
2018-Feb-18 22:29N 50°25' E 000°34'715.7
2018-Feb-18 22:00N 50°23' E 000°23'815.7
2018-Feb-18 21:30N 50°21' E 000°11'815.5
2018-Feb-18 20:58N 50°19' W 000°02'715.7
2018-Feb-18 20:30N 50°18' W 000°13'815.6
2018-Feb-18 20:00N 50°16' W 000°25'2716.1
2018-Feb-18 18:21N 50°09' W 001°05'515.9
2018-Feb-18 18:00N 50°08' W 001°13'815.6
2018-Feb-18 17:30N 50°06' W 001°25'815.2
2018-Feb-18 17:00N 50°04' W 001°37'714.4
2018-Feb-18 16:30N 50°02' W 001°47'714.1
2018-Feb-18 16:00N 49°60' W 001°58'713.8
2018-Feb-18 15:30N 49°58' W 002°08'714.0
2018-Feb-18 14:58N 49°56' W 002°19'714.0
2018-Feb-18 14:30N 49°54' W 002°29'713.9
2018-Feb-18 14:00N 49°53' W 002°40'714.3
2018-Feb-18 13:30N 49°51' W 002°50'1114.7
2018-Feb-18 12:46N 49°46' W 003°05'414.7
2018-Feb-18 12:29N 49°44' W 003°11'2014.8
2018-Feb-18 11:09N 49°33' W 003°37'7114.5
2018-Feb-18 06:14N 48°58' W 005°11'414.8
2018-Feb-18 05:57N 48°56' W 005°17'714.9
2018-Feb-18 05:30N 48°53' W 005°26'915.1
2018-Feb-18 04:54N 48°47' W 005°37'1915.1
2018-Feb-18 03:39N 48°30' W 005°49'515.4
2018-Feb-18 03:19N 48°25' W 005°52'1015.2
2018-Feb-18 02:40N 48°16' W 005°59'55914.2
2018-Feb-16 11:19N 39°22' W 009°47'516.3
2018-Feb-16 11:00N 39°17' W 009°48'816.3
2018-Feb-16 10:30N 39°09' W 009°49'816.2
2018-Feb-16 10:00N 39°01' W 009°50'816.5
2018-Feb-16 09:30N 38°52' W 009°51'816.5
2018-Feb-16 09:00N 38°44' W 009°51'816.4
2018-Feb-16 08:30N 38°36' W 009°50'816.1
2018-Feb-16 08:00N 38°28' W 009°47'816.0
2018-Feb-16 07:30N 38°20' W 009°45'815.9
2018-Feb-16 07:00N 38°13' W 009°43'815.8
2018-Feb-16 06:30N 38°05' W 009°40'815.9
2018-Feb-16 06:00N 37°57' W 009°38'816.0
2018-Feb-16 05:30N 37°49' W 009°37'815.8
2018-Feb-16 05:00N 37°41' W 009°35'916.1
2018-Feb-16 04:27N 37°33' W 009°33'2016.1
2018-Feb-16 03:14N 37°14' W 009°26'516.1
2018-Feb-16 02:57N 37°09' W 009°25'1516.2
2018-Feb-16 02:00N 36°54' W 009°20'2515.5
2018-Feb-16 00:22N 36°40' W 008°54'16616.2
2018-Feb-15 14:08N 35°58' W 005°35'215.6
2018-Feb-15 14:00N 35°59' W 005°33'714.8
2018-Feb-15 13:30N 36°02' W 005°24'712.7
2018-Feb-15 12:58N 36°09' W 005°25'1 1.8
2018-Feb-15 12:18N 36°08' W 005°25'0 0.0
2018-Feb-15 12:00N 36°08' W 005°25'0 0.0
2018-Feb-15 07:33N 36°08' W 005°25'0 0.0
2018-Feb-15 07:27N 36°08' W 005°25'0 0.0
2018-Feb-15 06:48N 36°08' W 005°25'0 0.0
2018-Feb-15 06:23N 36°08' W 005°25'0 0.0
2018-Feb-15 05:59N 36°08' W 005°25'0 0.0
2018-Feb-15 05:29N 36°08' W 005°25'0 0.0
2018-Feb-15 04:59N 36°08' W 005°25'0 0.0
2018-Feb-15 04:30N 36°08' W 005°25'0 0.0
2018-Feb-15 04:00N 36°08' W 005°25'0 0.0
2018-Feb-15 03:29N 36°08' W 005°25'0 0.0
2018-Feb-15 03:00N 36°08' W 005°25'0 0.0
2018-Feb-15 02:28N 36°08' W 005°25'0 0.0
2018-Feb-15 01:54N 36°08' W 005°25'0 0.0
2018-Feb-15 01:28N 36°08' W 005°25'0 0.0
2018-Feb-15 00:55N 36°08' W 005°25'0 0.0
2018-Feb-15 00:25N 36°08' W 005°25'0 0.0
2018-Feb-14 23:22N 36°08' W 005°25'0 0.0
2018-Feb-14 22:58N 36°08' W 005°25'0 0.0
2018-Feb-14 22:25N 36°08' W 005°25'0 0.0
2018-Feb-14 22:00N 36°08' W 005°25'1 1.9
2018-Feb-14 21:30N 36°07' W 005°25'0 0.8
2018-Feb-14 20:58N 36°07' W 005°24'0 0.1
2018-Feb-14 20:30N 36°07' W 005°24'0 0.0
2018-Feb-14 20:00N 36°07' W 005°24'0 0.1
2018-Feb-14 19:26N 36°07' W 005°24'0 0.0
2018-Feb-14 18:35N 36°07' W 005°24'0 0.0
2018-Feb-14 18:29N 36°07' W 005°24'0 0.0
2018-Feb-14 17:52N 36°07' W 005°24'0 0.0
2018-Feb-14 16:22N 36°07' W 005°24'0 0.2
2018-Feb-14 16:00N 36°07' W 005°24'0 0.0
2018-Feb-14 15:30N 36°07' W 005°24'0 0.0
2018-Feb-14 15:00N 36°07' W 005°24'0 0.1
2018-Feb-14 14:29N 36°07' W 005°24'0 0.0
2018-Feb-14 13:59N 36°07' W 005°24'0 0.0
2018-Feb-14 13:26N 36°07' W 005°24'0 0.0
2018-Feb-14 12:58N 36°07' W 005°24'0 0.2
2018-Feb-14 12:30N 36°07' W 005°24'0 0.1
2018-Feb-14 11:59N 36°07' W 005°24'0 0.0
2018-Feb-14 11:30N 36°07' W 005°24'0 0.1
2018-Feb-14 11:00N 36°07' W 005°24'0 0.0
2018-Feb-14 10:28N 36°07' W 005°24'0 0.1
2018-Feb-14 09:58N 36°07' W 005°24'0 0.1
2018-Feb-14 09:30N 36°07' W 005°24'0 0.1
2018-Feb-14 08:59N 36°07' W 005°24'0 0.0
2018-Feb-14 08:28N 36°07' W 005°24'0 0.1
2018-Feb-14 07:58N 36°07' W 005°24'0 0.0
2018-Feb-14 07:19N 36°07' W 005°24'0 0.1
2018-Feb-14 06:55N 36°07' W 005°24'0 0.0
2018-Feb-14 06:25N 36°07' W 005°24'0 0.0
2018-Feb-14 05:58N 36°07' W 005°24'0 0.0
2018-Feb-14 05:22N 36°07' W 005°24'0 0.1
2018-Feb-14 04:58N 36°07' W 005°24'0 0.0
2018-Feb-14 04:28N 36°07' W 005°24'0 0.1
2018-Feb-14 03:58N 36°07' W 005°24'0 0.1
2018-Feb-14 03:28N 36°07' W 005°24'1 2.2
2018-Feb-14 02:49N 36°06' W 005°24'3 8.8
2018-Feb-14 02:30N 36°03' W 005°23'1 2.4
2018-Feb-14 02:00N 36°03' W 005°22'1 2.5
2018-Feb-14 01:30N 36°02' W 005°22'510.6
2018-Feb-14 01:00N 35°58' W 005°27'  
Track history (hours):
 
Tides and Currents Weather Stations Pressure Air Temp Water Temp Dewpoint Dewpoint Depression Visibility Wind Speed Wind Dir Waves Ship Positions

CMA CGM Africa Two

Last reported at 2018-Feb-20 07:30 UTC. Time now 2018-Feb-20 07:46 UTC.
Position N 51°28' E 000°20'.

Length 228 m; draft 8.5 m.

Type: Ship (hazmat cat A). MMSI: 311043300.

Date/timePositionNaut miles runAvg speedWind from/ knotsBaromVisibWave heightAir tempDewpointWater temp
2018-Feb-20 07:30N 51°28' E 000°20'0 0.0
2018-Feb-20 07:00N 51°28' E 000°20'0 0.0
2018-Feb-20 06:30N 51°28' E 000°20'0 0.0
2018-Feb-20 06:00N 51°28' E 000°20'0 0.0
2018-Feb-20 05:30N 51°28' E 000°20'0 0.0
2018-Feb-20 05:00N 51°28' E 000°20'0 0.0
2018-Feb-20 04:30N 51°28' E 000°20'0 0.0
2018-Feb-20 04:00N 51°28' E 000°20'0 0.0
2018-Feb-20 03:30N 51°28' E 000°20'0 0.0
2018-Feb-20 03:01N 51°28' E 000°20'0 0.0
2018-Feb-20 02:30N 51°28' E 000°20'0 0.0
2018-Feb-20 02:00N 51°28' E 000°20'0 0.0
2018-Feb-20 01:31N 51°28' E 000°20'0 0.0
2018-Feb-20 01:01N 51°28' E 000°20'0 0.0
2018-Feb-20 00:30N 51°28' E 000°20'0 0.0
2018-Feb-20 00:00N 51°28' E 000°20'0 0.0
2018-Feb-19 23:30N 51°28' E 000°20'0 0.0
2018-Feb-19 23:00N 51°28' E 000°20'0 0.0
2018-Feb-19 22:30N 51°28' E 000°20'0 0.0
2018-Feb-19 22:01N 51°28' E 000°20'0 0.0
2018-Feb-19 21:30N 51°28' E 000°20'0 0.0
2018-Feb-19 21:01N 51°28' E 000°20'0 0.0
2018-Feb-19 20:31N 51°28' E 000°20'0 0.1
2018-Feb-19 20:00N 51°28' E 000°20'2 3.2
2018-Feb-19 19:31N 51°27' E 000°22'4 8.7
2018-Feb-19 19:01N 51°29' E 000°28'611.0
2018-Feb-19 18:30N 51°30' E 000°37'612.0
2018-Feb-19 18:00N 51°29' E 000°47'612.4
2018-Feb-19 17:30N 51°29' E 000°56'713.1
2018-Feb-19 17:00N 51°30' E 001°07'612.8
2018-Feb-19 16:31N 51°29' E 001°17'612.2
2018-Feb-19 16:01N 51°28' E 001°27'1 1.3
2018-Feb-19 15:31N 51°28' E 001°28'4 7.4
2018-Feb-19 15:00N 51°25' E 001°31'2 4.1
2018-Feb-19 14:30N 51°25' E 001°34'1 2.6
2018-Feb-19 14:00N 51°23' E 001°35'510.8
2018-Feb-19 13:30N 51°18' E 001°37'612.3
2018-Feb-19 13:01N 51°12' E 001°38'510.7
2018-Feb-19 12:30N 51°07' E 001°41'611.8
2018-Feb-19 12:00N 51°03' E 001°48'5 9.8
2018-Feb-19 11:30N 51°03' E 001°55'916.2
2018-Feb-19 10:59N 51°03' E 002°09'2 1.9
2018-Feb-19 09:42N 51°01' E 002°11'0 0.0
2018-Feb-19 08:31N 51°01' E 002°11'0 0.0
2018-Feb-19 07:45N 51°01' E 002°11'0 0.0
2018-Feb-19 07:27N 51°01' E 002°11'0 0.0
2018-Feb-19 06:54N 51°01' E 002°11'0 0.0
2018-Feb-19 06:30N 51°01' E 002°11'0 0.0
2018-Feb-19 05:31N 51°01' E 002°11'0 0.0
2018-Feb-19 05:16N 51°01' E 002°11'0 0.0
2018-Feb-19 04:50N 51°01' E 002°11'0 0.0
2018-Feb-19 04:25N 51°01' E 002°11'0 0.1
2018-Feb-19 04:00N 51°01' E 002°11'3 4.3
2018-Feb-19 03:16N 51°03' E 002°08'414.5
2018-Feb-19 03:00N 51°03' E 002°02'816.2
2018-Feb-19 02:30N 51°02' E 001°49'612.3
2018-Feb-19 02:00N 51°00' E 001°40'918.9
2018-Feb-19 01:30N 50°53' E 001°29'1717.1
2018-Feb-19 00:31N 50°38' E 001°17'315.1
2018-Feb-19 00:17N 50°36' E 001°13'915.3
2018-Feb-18 23:43N 50°31' E 001°02'415.0
2018-Feb-18 23:27N 50°29' E 000°56'715.2
2018-Feb-18 22:59N 50°27' E 000°46'815.5
2018-Feb-18 22:29N 50°25' E 000°34'715.7
2018-Feb-18 22:00N 50°23' E 000°23'815.7
2018-Feb-18 21:30N 50°21' E 000°11'815.5
2018-Feb-18 20:58N 50°19' W 000°02'715.7
2018-Feb-18 20:30N 50°18' W 000°13'815.6
2018-Feb-18 20:00N 50°16' W 000°25'2716.1
2018-Feb-18 18:21N 50°09' W 001°05'515.9
2018-Feb-18 18:00N 50°08' W 001°13'815.6
2018-Feb-18 17:30N 50°06' W 001°25'815.2
2018-Feb-18 17:00N 50°04' W 001°37'714.4
2018-Feb-18 16:30N 50°02' W 001°47'714.1
2018-Feb-18 16:00N 49°60' W 001°58'713.8
2018-Feb-18 15:30N 49°58' W 002°08'714.0
2018-Feb-18 14:58N 49°56' W 002°19'714.0
2018-Feb-18 14:30N 49°54' W 002°29'713.9
2018-Feb-18 14:00N 49°53' W 002°40'714.3
2018-Feb-18 13:30N 49°51' W 002°50'1114.7
2018-Feb-18 12:46N 49°46' W 003°05'414.7
2018-Feb-18 12:29N 49°44' W 003°11'2014.8
2018-Feb-18 11:09N 49°33' W 003°37'7114.5
2018-Feb-18 06:14N 48°58' W 005°11'414.8
2018-Feb-18 05:57N 48°56' W 005°17'714.9
2018-Feb-18 05:30N 48°53' W 005°26'915.1
2018-Feb-18 04:54N 48°47' W 005°37'1915.1
2018-Feb-18 03:39N 48°30' W 005°49'515.4
2018-Feb-18 03:19N 48°25' W 005°52'1015.2
2018-Feb-18 02:40N 48°16' W 005°59'55914.2
2018-Feb-16 11:19N 39°22' W 009°47'516.3
2018-Feb-16 11:00N 39°17' W 009°48'816.3
2018-Feb-16 10:30N 39°09' W 009°49'816.2
2018-Feb-16 10:00N 39°01' W 009°50'816.5
2018-Feb-16 09:30N 38°52' W 009°51'816.5
2018-Feb-16 09:00N 38°44' W 009°51'816.4
2018-Feb-16 08:30N 38°36' W 009°50'816.1
2018-Feb-16 08:00N 38°28' W 009°47'816.0
2018-Feb-16 07:30N 38°20' W 009°45'815.9
2018-Feb-16 07:00N 38°13' W 009°43'815.8
2018-Feb-16 06:30N 38°05' W 009°40'815.9
2018-Feb-16 06:00N 37°57' W 009°38'816.0
2018-Feb-16 05:30N 37°49' W 009°37'815.8
2018-Feb-16 05:00N 37°41' W 009°35'916.1
2018-Feb-16 04:27N 37°33' W 009°33'2016.1
2018-Feb-16 03:14N 37°14' W 009°26'516.1
2018-Feb-16 02:57N 37°09' W 009°25'1516.2
2018-Feb-16 02:00N 36°54' W 009°20'2515.5
2018-Feb-16 00:22N 36°40' W 008°54'16616.2
2018-Feb-15 14:08N 35°58' W 005°35'215.6
2018-Feb-15 14:00N 35°59' W 005°33'714.8
2018-Feb-15 13:30N 36°02' W 005°24'712.7
2018-Feb-15 12:58N 36°09' W 005°25'1 1.8
2018-Feb-15 12:18N 36°08' W 005°25'0 0.0
2018-Feb-15 12:00N 36°08' W 005°25'0 0.0
2018-Feb-15 07:33N 36°08' W 005°25'0 0.0
2018-Feb-15 07:27N 36°08' W 005°25'0 0.0
2018-Feb-15 06:48N 36°08' W 005°25'0 0.0
2018-Feb-15 06:23N 36°08' W 005°25'0 0.0
2018-Feb-15 05:59N 36°08' W 005°25'0 0.0
2018-Feb-15 05:29N 36°08' W 005°25'0 0.0
2018-Feb-15 04:59N 36°08' W 005°25'0 0.0
2018-Feb-15 04:30N 36°08' W 005°25'0 0.0
2018-Feb-15 04:00N 36°08' W 005°25'0 0.0
2018-Feb-15 03:29N 36°08' W 005°25'0 0.0
2018-Feb-15 03:00N 36°08' W 005°25'0 0.0
2018-Feb-15 02:28N 36°08' W 005°25'0 0.0
2018-Feb-15 01:54N 36°08' W 005°25'0 0.0
2018-Feb-15 01:28N 36°08' W 005°25'0 0.0
2018-Feb-15 00:55N 36°08' W 005°25'0 0.0
2018-Feb-15 00:25N 36°08' W 005°25'0 0.0
2018-Feb-14 23:22N 36°08' W 005°25'0 0.0
2018-Feb-14 22:58N 36°08' W 005°25'0 0.0
2018-Feb-14 22:25N 36°08' W 005°25'0 0.0
2018-Feb-14 22:00N 36°08' W 005°25'1 1.9
2018-Feb-14 21:30N 36°07' W 005°25'0 0.8
2018-Feb-14 20:58N 36°07' W 005°24'0 0.1
2018-Feb-14 20:30N 36°07' W 005°24'0 0.0
2018-Feb-14 20:00N 36°07' W 005°24'0 0.1
2018-Feb-14 19:26N 36°07' W 005°24'0 0.0
2018-Feb-14 18:35N 36°07' W 005°24'0 0.0
2018-Feb-14 18:29N 36°07' W 005°24'0 0.0
2018-Feb-14 17:52N 36°07' W 005°24'0 0.0
2018-Feb-14 16:22N 36°07' W 005°24'0 0.2
2018-Feb-14 16:00N 36°07' W 005°24'0 0.0
2018-Feb-14 15:30N 36°07' W 005°24'0 0.0
2018-Feb-14 15:00N 36°07' W 005°24'0 0.1
2018-Feb-14 14:29N 36°07' W 005°24'0 0.0
2018-Feb-14 13:59N 36°07' W 005°24'0 0.0
2018-Feb-14 13:26N 36°07' W 005°24'0 0.0
2018-Feb-14 12:58N 36°07' W 005°24'0 0.2
2018-Feb-14 12:30N 36°07' W 005°24'0 0.1
2018-Feb-14 11:59N 36°07' W 005°24'0 0.0
2018-Feb-14 11:30N 36°07' W 005°24'0 0.1
2018-Feb-14 11:00N 36°07' W 005°24'0 0.0
2018-Feb-14 10:28N 36°07' W 005°24'0 0.1
2018-Feb-14 09:58N 36°07' W 005°24'0 0.1
2018-Feb-14 09:30N 36°07' W 005°24'0 0.1
2018-Feb-14 08:59N 36°07' W 005°24'0 0.0
2018-Feb-14 08:28N 36°07' W 005°24'0 0.1
2018-Feb-14 07:58N 36°07' W 005°24'0 0.0
2018-Feb-14 07:19N 36°07' W 005°24'0 0.1
2018-Feb-14 06:55N 36°07' W 005°24'0 0.0
2018-Feb-14 06:25N 36°07' W 005°24'0 0.0
2018-Feb-14 05:58N 36°07' W 005°24'0 0.0
2018-Feb-14 05:22N 36°07' W 005°24'0 0.1
2018-Feb-14 04:58N 36°07' W 005°24'0 0.0
2018-Feb-14 04:28N 36°07' W 005°24'0 0.1
2018-Feb-14 03:58N 36°07' W 005°24'0 0.1
2018-Feb-14 03:28N 36°07' W 005°24'1 2.2
2018-Feb-14 02:49N 36°06' W 005°24'3 8.8
2018-Feb-14 02:30N 36°03' W 005°23'1 2.4
2018-Feb-14 02:00N 36°03' W 005°22'1 2.5
2018-Feb-14 01:30N 36°02' W 005°22'510.6
2018-Feb-14 01:00N 35°58' W 005°27'  

Dump ship's entire track history